createdAt,value
2023-02-02T00:01:00.972Z,96571.72
2023-02-02T00:03:27.295Z,96576.47
2023-02-02T00:05:54.174Z,96573.53
2023-02-02T00:08:21.991Z,96571.06
2023-02-02T00:10:50.379Z,96568.97
2023-02-02T00:13:17.109Z,96571.41
2023-02-02T00:15:43.883Z,96567.94
2023-02-02T00:18:10.200Z,96565.69
2023-02-02T00:20:36.582Z,96565.19
2023-02-02T00:23:04.459Z,96568.00
2023-02-02T00:25:31.314Z,96565.69
2023-02-02T00:27:57.686Z,96571.44
2023-02-02T00:30:24.317Z,96570.59
2023-02-02T00:32:52.931Z,96572.91
2023-02-02T00:35:19.862Z,96580.47
2023-02-02T00:37:46.174Z,96572.25
2023-02-02T00:40:12.617Z,96561.28
2023-02-02T00:42:39.532Z,96563.44
2023-02-02T00:45:18.435Z,96575.22
2023-02-02T00:47:47.908Z,96564.88
2023-02-02T00:50:19.275Z,96571.91
2023-02-02T00:52:47.547Z,96571.97
2023-02-02T00:55:14.932Z,96581.63
2023-02-02T00:57:41.516Z,96575.06
2023-02-02T01:00:09.868Z,96569.63
2023-02-02T01:02:36.322Z,96573.22
2023-02-02T01:05:03.742Z,96570.13
2023-02-02T01:07:31.021Z,96567.66
2023-02-02T01:09:57.404Z,96575.06
2023-02-02T01:12:24.120Z,96579.47
2023-02-02T01:14:50.800Z,96574.59
2023-02-02T01:17:18.112Z,96577.50
2023-02-02T01:19:44.454Z,96578.16
2023-02-02T01:22:10.891Z,96566.66
2023-02-02T01:24:37.724Z,96564.03
2023-02-02T01:27:04.121Z,96576.19
2023-02-02T01:29:30.531Z,96575.22
2023-02-02T01:31:58.533Z,96566.72
2023-02-02T01:34:25.005Z,96573.28
2023-02-02T01:36:51.349Z,96574.00
2023-02-02T01:39:18.268Z,96577.03
2023-02-02T01:41:44.813Z,96574.22
2023-02-02T01:44:49.243Z,96564.56
2023-02-02T01:47:15.853Z,96581.16
2023-02-02T01:49:42.365Z,96574.09
2023-02-02T01:52:10.382Z,96570.34
2023-02-02T01:54:41.796Z,96559.97
2023-02-02T01:57:28.753Z,96570.66
2023-02-02T01:59:58.640Z,96560.94
2023-02-02T02:02:27.316Z,96560.44
2023-02-02T02:04:55.274Z,96558.19
2023-02-02T02:07:22.501Z,96561.66
2023-02-02T02:09:49.369Z,96560.19
2023-02-02T02:12:16.220Z,96563.78
2023-02-02T02:15:05.013Z,96568.41
2023-02-02T02:17:55.913Z,96572.06
2023-02-02T02:21:16.924Z,96574.69
2023-02-02T02:24:20.332Z,96577.69
2023-02-02T02:27:00.851Z,96579.81
2023-02-02T02:29:56.997Z,96587.81
2023-02-02T02:32:41.578Z,96577.94
2023-02-02T02:35:20.224Z,96574.66
2023-02-02T02:37:49.544Z,96576.16
2023-02-02T02:40:32.629Z,96580.25
2023-02-02T02:43:06.454Z,96582.22
2023-02-02T02:45:34.882Z,96573.34
2023-02-02T02:48:03.091Z,96588.44
2023-02-02T02:50:29.613Z,96595.00
2023-02-02T02:53:11.956Z,96588.25
2023-02-02T02:56:18.603Z,96584.34
2023-02-02T02:58:52.557Z,96589.28
2023-02-02T03:01:24.895Z,96577.75
2023-02-02T03:04:06.367Z,96578.59
2023-02-02T03:06:42.483Z,96581.03
2023-02-02T03:09:13.912Z,96579.72
2023-02-02T03:11:40.784Z,96577.09
2023-02-02T03:14:09.628Z,96571.38
2023-02-02T03:16:37.833Z,96567.44
2023-02-02T03:19:05.957Z,96565.34
2023-02-02T03:21:33.596Z,96566.81
2023-02-02T03:24:00.841Z,96571.41
2023-02-02T03:26:27.483Z,96574.34
2023-02-02T03:28:56.107Z,96577.94
2023-02-02T03:31:23.170Z,96571.41
2023-02-02T03:33:49.544Z,96575.84
2023-02-02T03:36:15.939Z,96565.69
2023-02-02T03:38:42.789Z,96572.91
2023-02-02T03:41:09.117Z,96559.78
2023-02-02T03:43:35.440Z,96561.22
2023-02-02T03:46:04.757Z,96562.41
2023-02-02T03:48:35.077Z,96566.47
2023-02-02T03:51:06.172Z,96561.75
2023-02-02T03:53:32.475Z,96563.00
2023-02-02T03:55:58.781Z,96561.53
2023-02-02T03:58:25.491Z,96571.19
2023-02-02T04:00:51.858Z,96588.78
2023-02-02T04:03:18.179Z,96591.38
2023-02-02T04:05:44.915Z,96591.88
2023-02-02T04:08:11.221Z,96603.34
2023-02-02T04:10:39.561Z,96599.41
2023-02-02T04:13:06.312Z,96603.53
2023-02-02T04:15:32.967Z,96601.09
2023-02-02T04:17:59.308Z,96596.50
2023-02-02T04:20:25.610Z,96596.63
2023-02-02T04:22:52.275Z,96592.19
2023-02-02T04:25:18.576Z,96594.00
2023-02-02T04:27:44.916Z,96595.34
2023-02-02T04:30:12.242Z,96596.31
2023-02-02T04:32:38.613Z,96591.41
2023-02-02T04:35:05.211Z,96578.28
2023-02-02T04:37:32.850Z,96602.09
2023-02-02T04:39:59.194Z,96604.41
2023-02-02T04:42:25.592Z,96595.56
2023-02-02T04:44:52.406Z,96591.28
2023-02-02T04:47:18.712Z,96601.50
2023-02-02T04:49:45.057Z,96599.00
2023-02-02T04:52:12.364Z,96594.44
2023-02-02T04:54:38.674Z,96589.50
2023-02-02T04:57:05.002Z,96585.25
2023-02-02T04:59:31.342Z,96593.78
2023-02-02T05:02:02.020Z,96606.91
2023-02-02T05:04:28.668Z,96591.63
2023-02-02T05:06:55.049Z,96607.75
2023-02-02T05:09:21.725Z,96612.28
2023-02-02T05:11:48.074Z,96612.44
2023-02-02T05:14:16.905Z,96604.06
2023-02-02T05:16:43.752Z,96614.91
2023-02-02T05:19:17.044Z,96618.34
2023-02-02T05:21:44.723Z,96623.47
2023-02-02T05:24:12.089Z,96611.13
2023-02-02T05:26:39.075Z,96629.03
2023-02-02T05:29:06.658Z,96616.72
2023-02-02T05:31:33.375Z,96631.03
2023-02-02T05:34:00.245Z,96620.53
2023-02-02T05:36:26.832Z,96629.19
2023-02-02T05:38:53.143Z,96620.19
2023-02-02T05:41:19.877Z,96624.00
2023-02-02T05:43:46.188Z,96632.06
2023-02-02T05:46:12.676Z,96633.19
2023-02-02T05:48:39.265Z,96637.13
2023-02-02T05:51:22.053Z,96631.56
2023-02-02T05:53:48.419Z,96640.94
2023-02-02T05:56:15.731Z,96637.47
2023-02-02T05:58:43.642Z,96634.19
2023-02-02T06:01:10.177Z,96626.31
2023-02-02T06:03:36.659Z,96632.41
2023-02-02T06:06:06.573Z,96630.44
2023-02-02T06:08:33.729Z,96623.69
2023-02-02T06:11:00.098Z,96622.34
2023-02-02T06:13:26.432Z,96632.41
2023-02-02T06:15:53.239Z,96625.34
2023-02-02T06:18:19.647Z,96637.34
2023-02-02T06:20:48.006Z,96637.34
2023-02-02T06:23:14.352Z,96633.72
2023-02-02T06:25:40.658Z,96634.53
2023-02-02T06:28:07.956Z,96640.94
2023-02-02T06:30:34.711Z,96629.78
2023-02-02T06:33:01.752Z,96641.13
2023-02-02T06:35:28.193Z,96639.97
2023-02-02T06:37:54.602Z,96638.53
2023-02-02T06:40:21.308Z,96637.53
2023-02-02T06:42:47.608Z,96650.00
2023-02-02T06:45:13.978Z,96655.91
2023-02-02T06:47:40.846Z,96658.53
2023-02-02T06:50:07.560Z,96652.09
2023-02-02T06:52:33.869Z,96661.78
2023-02-02T06:55:00.623Z,96660.97
2023-02-02T06:57:26.980Z,96649.66
2023-02-02T06:59:53.296Z,96661.78
2023-02-02T07:02:20.058Z,96652.59
2023-02-02T07:04:46.386Z,96656.50
2023-02-02T07:07:12.792Z,96652.41
2023-02-02T07:09:39.668Z,96650.31
2023-02-02T07:12:06.276Z,96648.94
2023-02-02T07:14:32.627Z,96645.53
2023-02-02T07:16:59.364Z,96656.38
2023-02-02T07:19:26.217Z,96660.47
2023-02-02T07:21:53.320Z,96655.22
2023-02-02T07:24:19.656Z,96661.44
2023-02-02T07:26:46.011Z,96664.75
2023-02-02T07:29:16.601Z,96657.78
2023-02-02T07:31:43.077Z,96660.22
2023-02-02T07:34:10.494Z,96675.66
2023-02-02T07:36:37.675Z,96677.50
2023-02-02T07:39:05.616Z,96678.75
2023-02-02T07:41:34.633Z,96679.09
2023-02-02T07:44:01.647Z,96683.81
2023-02-02T07:46:28.402Z,96694.31
2023-02-02T07:48:55.760Z,96703.03
2023-02-02T07:51:22.701Z,96700.28
2023-02-02T07:53:51.995Z,96709.66
2023-02-02T07:56:20.791Z,96697.47
2023-02-02T07:58:47.673Z,96703.56
2023-02-02T08:01:16.366Z,96706.66
2023-02-02T08:03:43.581Z,96705.53
2023-02-02T08:06:20.354Z,96708.28
2023-02-02T08:08:47.594Z,96698.72
2023-02-02T08:11:15.938Z,96714.19
2023-02-02T08:13:43.852Z,96709.28
2023-02-02T08:16:11.152Z,96700.19
2023-02-02T08:18:38.474Z,96703.78
2023-02-02T08:21:08.550Z,96697.22
2023-02-02T08:23:36.550Z,96713.78
2023-02-02T08:26:11.941Z,96710.16
2023-02-02T08:28:39.762Z,96725.63
2023-02-02T08:31:09.000Z,96712.19
2023-02-02T08:33:36.532Z,96718.94
2023-02-02T08:36:03.923Z,96722.53
2023-02-02T08:38:30.497Z,96723.06
2023-02-02T08:41:04.938Z,96731.06
2023-02-02T08:43:31.249Z,96726.19
2023-02-02T08:46:02.074Z,96738.00
2023-02-02T08:48:30.426Z,96735.25
2023-02-02T08:50:58.811Z,96734.56
2023-02-02T08:53:26.566Z,96753.09
2023-02-02T08:56:27.084Z,96741.78
2023-02-02T08:58:56.274Z,96753.09
2023-02-02T09:01:31.246Z,96744.41
2023-02-02T09:04:02.326Z,96758.56
2023-02-02T09:06:38.333Z,96755.47
2023-02-02T09:09:07.066Z,96761.25
2023-02-02T09:11:34.101Z,96761.25
2023-02-02T09:14:03.484Z,96760.91
2023-02-02T09:16:30.183Z,96752.25
2023-02-02T09:18:56.923Z,96753.09
2023-02-02T09:21:24.075Z,96747.47
2023-02-02T09:23:53.583Z,96760.66
2023-02-02T09:26:32.599Z,96757.09
2023-02-02T09:29:02.641Z,96752.13
2023-02-02T09:31:30.867Z,96758.88
2023-02-02T09:34:01.574Z,96750.47
2023-02-02T09:36:28.006Z,96758.72
2023-02-02T09:38:54.328Z,96769.59
2023-02-02T09:41:39.334Z,96763.66
2023-02-02T09:44:25.026Z,96760.69
2023-02-02T09:47:06.846Z,96768.22
2023-02-02T09:49:55.738Z,96771.19
2023-02-02T09:52:28.897Z,96762.66
2023-02-02T09:55:04.995Z,96769.88
2023-02-02T09:57:45.629Z,96786.50
2023-02-02T10:00:21.699Z,96796.53
2023-02-02T10:02:51.187Z,96795.28
2023-02-02T10:05:25.078Z,96806.63
2023-02-02T10:07:57.823Z,96803.53
2023-02-02T10:10:29.424Z,96803.09
2023-02-02T10:12:55.856Z,96805.38
2023-02-02T10:15:44.929Z,96806.56
2023-02-02T10:18:20.094Z,96802.09
2023-02-02T10:21:01.692Z,96798.44
2023-02-02T10:23:30.859Z,96806.19
2023-02-02T10:26:16.221Z,96799.44
2023-02-02T10:29:01.759Z,96797.78
2023-02-02T10:31:40.413Z,96798.13
2023-02-02T10:34:18.314Z,96803.56
2023-02-02T10:37:10.930Z,96793.88
2023-02-02T10:40:07.684Z,96794.34
2023-02-02T10:42:34.049Z,96801.06
2023-02-02T10:45:09.144Z,96791.72
2023-02-02T10:47:37.090Z,96799.28
2023-02-02T10:50:13.134Z,96800.28
2023-02-02T10:53:03.195Z,96802.72
2023-02-02T10:55:41.720Z,96810.88
2023-02-02T10:58:11.122Z,96812.22
2023-02-02T11:00:37.701Z,96797.28
2023-02-02T11:03:07.576Z,96809.94
2023-02-02T11:05:52.673Z,96815.28
2023-02-02T11:08:43.039Z,96813.25
2023-02-02T11:11:11.204Z,96809.31
2023-02-02T11:13:44.620Z,96802.72
2023-02-02T11:16:19.859Z,96807.16
2023-02-02T11:18:46.798Z,96818.97
2023-02-02T11:21:22.325Z,96822.09
2023-02-02T11:24:03.108Z,96822.78
2023-02-02T11:26:52.091Z,96827.69
2023-02-02T11:29:26.980Z,96834.91
2023-02-02T11:31:53.486Z,96836.88
2023-02-02T11:34:25.518Z,96827.00
2023-02-02T11:37:01.180Z,96830.34
2023-02-02T11:39:28.166Z,96826.69
2023-02-02T11:42:04.141Z,96832.00
2023-02-02T11:44:32.456Z,96822.97
2023-02-02T11:47:00.526Z,96827.22
2023-02-02T11:49:28.040Z,96833.41
2023-02-02T11:52:00.626Z,96834.25
2023-02-02T11:54:30.632Z,96831.19
2023-02-02T11:57:00.560Z,96829.50
2023-02-02T11:59:38.683Z,96829.81
2023-02-02T12:02:20.339Z,96825.59
2023-02-02T12:04:52.445Z,96833.22
2023-02-02T12:07:30.006Z,96829.66
2023-02-02T12:10:00.575Z,96824.38
2023-02-02T12:12:42.891Z,96820.25
2023-02-02T12:15:31.860Z,96812.97
2023-02-02T12:18:16.236Z,96819.84
2023-02-02T12:20:57.983Z,96824.97
2023-02-02T12:23:31.620Z,96828.50
2023-02-02T12:26:14.488Z,96831.13
2023-02-02T12:29:39.804Z,96826.34
2023-02-02T12:32:11.932Z,96827.69
2023-02-02T12:34:52.139Z,96819.94
2023-02-02T12:37:37.198Z,96829.88
2023-02-02T12:40:30.541Z,96810.69
2023-02-02T12:43:17.814Z,96817.56
2023-02-02T12:46:10.781Z,96816.75
2023-02-02T12:49:02.805Z,96818.66
2023-02-02T12:51:44.365Z,96811.06
2023-02-02T12:54:50.457Z,96808.81
2023-02-02T12:57:36.078Z,96808.44
2023-02-02T13:00:05.556Z,96812.09
2023-02-02T13:03:07.522Z,96793.88
2023-02-02T13:05:59.961Z,96802.72
2023-02-02T13:08:58.175Z,96807.31
2023-02-02T13:11:50.455Z,96813.88
2023-02-02T13:14:33.192Z,96807.97
2023-02-02T13:17:07.657Z,96799.38
2023-02-02T13:19:40.978Z,96820.47
2023-02-02T13:22:14.555Z,96833.03
2023-02-02T13:24:45.233Z,96841.03
2023-02-02T13:27:17.750Z,96828.50
2023-02-02T13:30:19.128Z,96830.03
2023-02-02T13:32:48.924Z,96831.19
2023-02-02T13:35:49.755Z,96834.22
2023-02-02T13:38:23.429Z,96832.31
2023-02-02T13:40:53.229Z,96844.69
2023-02-02T13:43:19.648Z,96852.81
2023-02-02T13:46:32.358Z,96851.56
2023-02-02T13:49:20.255Z,96854.06
2023-02-02T13:52:00.566Z,96863.72
2023-02-02T13:54:51.738Z,96874.34
2023-02-02T13:57:36.947Z,96863.19
2023-02-02T14:00:20.012Z,96860.34
2023-02-02T14:02:51.879Z,96868.63
2023-02-02T14:05:40.443Z,96871.16
2023-02-02T14:08:22.529Z,96874.25
2023-02-02T14:10:51.911Z,96865.25
2023-02-02T14:13:43.373Z,96878.75
2023-02-02T14:16:22.149Z,96875.47
2023-02-02T14:18:49.001Z,96892.97
2023-02-02T14:21:33.519Z,96900.81
2023-02-02T14:24:00.253Z,96906.28
2023-02-02T14:26:50.481Z,96923.38
2023-02-02T14:29:32.835Z,96919.06
2023-02-02T14:32:02.114Z,96910.84
2023-02-02T14:34:39.327Z,96909.09
2023-02-02T14:37:24.429Z,96922.03
2023-02-02T14:40:17.315Z,96912.06
2023-02-02T14:43:24.524Z,96921.53
2023-02-02T14:46:12.964Z,96914.94
2023-02-02T14:48:42.601Z,96918.25
2023-02-02T14:51:21.286Z,96907.94
2023-02-02T14:53:58.696Z,96901.06
2023-02-02T14:56:45.386Z,96907.09
2023-02-02T14:59:20.715Z,96905.59
2023-02-02T15:02:01.050Z,96911.56
2023-02-02T15:04:29.906Z,96916.56
2023-02-02T15:06:56.591Z,96921.66
2023-02-02T15:09:23.400Z,96919.28
2023-02-02T15:12:25.017Z,96923.31
2023-02-02T15:15:11.075Z,96911.81
2023-02-02T15:17:40.742Z,96913.06
2023-02-02T15:20:21.428Z,96930.28
2023-02-02T15:22:47.827Z,96931.00
2023-02-02T15:25:36.394Z,96930.19
2023-02-02T15:28:24.997Z,96920.03
2023-02-02T15:30:57.425Z,96929.84
2023-02-02T15:33:36.458Z,96925.66
2023-02-02T15:36:13.034Z,96938.63
2023-02-02T15:38:41.801Z,96934.75
2023-02-02T15:41:14.216Z,96948.19
2023-02-02T15:43:40.695Z,96941.72
2023-02-02T15:46:12.803Z,96951.09
2023-02-02T15:48:40.011Z,96952.09
2023-02-02T15:51:20.245Z,96972.44
2023-02-02T15:53:50.277Z,96971.47
2023-02-02T15:56:19.669Z,96967.50
2023-02-02T15:58:54.854Z,96977.72
2023-02-02T16:01:26.498Z,96981.13
2023-02-02T16:04:07.354Z,96985.25
2023-02-02T16:06:34.803Z,96993.75
2023-02-02T16:09:06.935Z,96999.00
2023-02-02T16:11:34.017Z,97001.66
2023-02-02T16:14:04.165Z,97002.31
2023-02-02T16:16:36.464Z,97001.66
2023-02-02T16:19:14.789Z,97014.50
2023-02-02T16:21:52.496Z,97016.56
2023-02-02T16:24:26.068Z,97022.50
2023-02-02T16:26:54.604Z,97027.09
2023-02-02T16:29:22.127Z,97023.63
2023-02-02T16:31:49.701Z,97021.66
2023-02-02T16:34:18.837Z,97020.53
2023-02-02T16:37:04.730Z,97020.03
2023-02-02T16:39:31.136Z,97033.16
2023-02-02T16:42:09.280Z,97043.69
2023-02-02T16:44:46.423Z,97049.75
2023-02-02T16:47:25.436Z,97052.84
2023-02-02T16:50:09.596Z,97060.72
2023-02-02T16:52:51.042Z,97060.66
2023-02-02T16:55:19.430Z,97073.41
2023-02-02T16:57:48.437Z,97067.72
2023-02-02T17:00:27.372Z,97061.09
2023-02-02T17:02:59.834Z,97054.34
2023-02-02T17:05:48.906Z,97056.97
2023-02-02T17:08:26.198Z,97050.94
2023-02-02T17:11:18.756Z,97069.00
2023-02-02T17:13:45.234Z,97081.00
2023-02-02T17:16:19.329Z,97085.94
2023-02-02T17:18:46.431Z,97093.91
2023-02-02T17:21:34.257Z,97083.84
2023-02-02T17:24:01.213Z,97085.56
2023-02-02T17:26:27.720Z,97091.13
2023-02-02T17:29:00.608Z,97087.66
2023-02-02T17:31:27.197Z,97101.03
2023-02-02T17:33:53.680Z,97095.22
2023-02-02T17:36:21.014Z,97102.75
2023-02-02T17:38:47.497Z,97097.78
2023-02-02T17:41:14.377Z,97106.63
2023-02-02T17:43:42.981Z,97115.44
2023-02-02T17:46:13.047Z,97115.34
2023-02-02T17:48:39.502Z,97124.34
2023-02-02T17:51:07.461Z,97127.06
2023-02-02T17:53:34.538Z,97126.28
2023-02-02T17:56:00.980Z,97141.09
2023-02-02T17:58:28.249Z,97142.59
2023-02-02T18:00:58.935Z,97139.97
2023-02-02T18:03:34.233Z,97151.16
2023-02-02T18:06:01.762Z,97162.19
2023-02-02T18:08:29.418Z,97156.66
2023-02-02T18:10:56.852Z,97154.69
2023-02-02T18:13:23.844Z,97162.75
2023-02-02T18:15:52.018Z,97156.03
2023-02-02T18:18:18.787Z,97156.41
2023-02-02T18:20:48.468Z,97156.09
2023-02-02T18:23:16.555Z,97155.78
2023-02-02T18:25:43.351Z,97142.78
2023-02-02T18:28:11.092Z,97149.16
2023-02-02T18:30:38.913Z,97160.56
2023-02-02T18:33:08.092Z,97153.31
2023-02-02T18:35:35.460Z,97152.69
2023-02-02T18:38:01.947Z,97152.53
2023-02-02T18:40:28.353Z,97143.84
2023-02-02T18:42:55.087Z,97144.19
2023-02-02T18:45:22.426Z,97144.19
2023-02-02T18:47:49.589Z,97155.16
2023-02-02T18:50:16.352Z,97153.19
2023-02-02T18:52:43.062Z,97176.00
2023-02-02T18:55:09.613Z,97171.25
2023-02-02T18:57:36.080Z,97169.34
2023-02-02T19:00:04.089Z,97163.44
2023-02-02T19:02:30.501Z,97152.47
2023-02-02T19:05:16.209Z,97161.25
2023-02-02T19:07:54.447Z,97167.75
2023-02-02T19:10:22.586Z,97158.72
2023-02-02T19:13:02.460Z,97166.16
2023-02-02T19:15:29.284Z,97157.59
2023-02-02T19:17:55.739Z,97154.22
2023-02-02T19:20:28.546Z,97161.19
2023-02-02T19:23:12.308Z,97169.53
2023-02-02T19:25:46.378Z,97171.66
2023-02-02T19:28:25.188Z,97185.69
2023-02-02T19:30:57.100Z,97174.13
2023-02-02T19:33:48.424Z,97177.53
2023-02-02T19:36:23.455Z,97173.06
2023-02-02T19:38:55.795Z,97168.88
2023-02-02T19:41:26.545Z,97162.31
2023-02-02T19:43:59.628Z,97177.53
2023-02-02T19:46:28.150Z,97172.09
2023-02-02T19:49:10.885Z,97162.72
2023-02-02T19:51:45.572Z,97160.47
2023-02-02T19:54:36.069Z,97163.09
2023-02-02T19:57:33.242Z,97157.22
2023-02-02T20:00:11.576Z,97163.31
2023-02-02T20:02:43.474Z,97169.09
2023-02-02T20:05:23.117Z,97178.78
2023-02-02T20:08:12.490Z,97185.53
2023-02-02T20:10:43.716Z,97187.22
2023-02-02T20:13:16.215Z,97182.97
2023-02-02T20:15:43.004Z,97183.22
2023-02-02T20:18:23.527Z,97189.63
2023-02-02T20:20:54.010Z,97187.72
2023-02-02T20:23:33.497Z,97191.06
2023-02-02T20:26:03.800Z,97170.66
2023-02-02T20:28:41.569Z,97176.78
2023-02-02T20:31:11.279Z,97184.38
2023-02-02T20:33:42.047Z,97184.69
2023-02-02T20:36:38.141Z,97191.38
2023-02-02T20:39:35.003Z,97188.38
2023-02-02T20:42:03.084Z,97190.00
2023-02-02T20:44:31.232Z,97188.38
2023-02-02T20:47:00.167Z,97179.81
2023-02-02T20:49:28.831Z,97193.41
2023-02-02T20:51:56.695Z,97178.09
2023-02-02T20:54:24.683Z,97192.50
2023-02-02T20:56:51.988Z,97190.31
2023-02-02T20:59:19.995Z,97193.91
2023-02-02T21:01:47.200Z,97191.72
2023-02-02T21:04:13.587Z,97192.41
2023-02-02T21:06:40.998Z,97195.34
2023-02-02T21:09:09.651Z,97212.63
2023-02-02T21:11:36.304Z,97202.69
2023-02-02T21:14:03.361Z,97206.31
2023-02-02T21:16:29.959Z,97204.59
2023-02-02T21:18:57.184Z,97208.31
2023-02-02T21:21:24.030Z,97200.59
2023-02-02T21:23:51.469Z,97207.72
2023-02-02T21:26:20.776Z,97194.50
2023-02-02T21:28:48.520Z,97202.16
2023-02-02T21:31:16.997Z,97208.91
2023-02-02T21:33:48.599Z,97211.97
2023-02-02T21:36:28.959Z,97212.31
2023-02-02T21:39:29.685Z,97211.91
2023-02-02T21:42:08.346Z,97210.84
2023-02-02T21:44:37.271Z,97214.41
2023-02-02T21:47:22.598Z,97216.22
2023-02-02T21:49:49.354Z,97214.53
2023-02-02T21:52:17.426Z,97222.41
2023-02-02T21:54:45.132Z,97224.94
2023-02-02T21:57:20.764Z,97230.41
2023-02-02T21:59:54.108Z,97238.69
2023-02-02T22:02:40.253Z,97229.78
2023-02-02T22:05:36.123Z,97228.88
2023-02-02T22:08:18.689Z,97229.81
2023-02-02T22:10:45.945Z,97216.00
2023-02-02T22:13:22.844Z,97234.78
2023-02-02T22:15:52.710Z,97241.13
2023-02-02T22:18:22.759Z,97252.53
2023-02-02T22:20:51.258Z,97252.72
2023-02-02T22:23:21.547Z,97246.00
2023-02-02T22:25:50.470Z,97246.94
2023-02-02T22:28:28.840Z,97246.94
2023-02-02T22:30:56.726Z,97251.03
2023-02-02T22:33:23.628Z,97250.47
2023-02-02T22:35:50.933Z,97254.66
2023-02-02T22:38:21.035Z,97256.69
2023-02-02T22:40:48.398Z,97258.94
2023-02-02T22:43:16.523Z,97255.47
2023-02-02T22:45:43.945Z,97257.72
2023-02-02T22:48:12.312Z,97246.94
2023-02-02T22:50:39.085Z,97249.69
2023-02-02T22:53:05.687Z,97242.72
2023-02-02T22:55:33.723Z,97240.88
2023-02-02T22:58:00.773Z,97238.09
2023-02-02T23:00:30.066Z,97235.63
2023-02-02T23:02:57.862Z,97235.88
2023-02-02T23:05:26.283Z,97231.97
2023-02-02T23:07:53.728Z,97236.44
2023-02-02T23:10:26.327Z,97231.13
2023-02-02T23:12:54.911Z,97233.25
2023-02-02T23:15:21.466Z,97233.44
2023-02-02T23:17:49.067Z,97235.53
2023-02-02T23:20:16.564Z,97231.00
2023-02-02T23:22:43.118Z,97221.31
2023-02-02T23:25:10.996Z,97222.81
2023-02-02T23:27:37.907Z,97213.28
2023-02-02T23:30:05.787Z,97213.53
2023-02-02T23:32:32.625Z,97219.22
2023-02-02T23:34:59.061Z,97216.28
2023-02-02T23:37:25.471Z,97222.16
2023-02-02T23:39:52.216Z,97219.66
2023-02-02T23:42:18.637Z,97238.75
2023-02-02T23:44:45.084Z,97242.28
2023-02-02T23:47:12.075Z,97243.63
2023-02-02T23:49:38.853Z,97238.94
2023-02-02T23:52:06.924Z,97244.75
2023-02-02T23:54:34.152Z,97243.81
2023-02-02T23:57:01.611Z,97225.69
2023-02-02T23:59:28.308Z,97222.97
